createdAt,value
2022-08-19T00:00:51.336Z,99960.97
2022-08-19T00:05:52.919Z,99970.72
2022-08-19T00:10:54.377Z,99978.03
2022-08-19T00:15:56.951Z,99968.78
2022-08-19T00:20:58.959Z,99976.38
2022-08-19T00:26:00.380Z,99965.44
2022-08-19T00:31:03.017Z,99977.84
2022-08-19T00:36:08.604Z,99977.03
2022-08-19T00:41:15.583Z,99986.56
2022-08-19T00:46:17.060Z,99973.09
2022-08-19T00:51:18.788Z,99946.69
2022-08-19T00:56:20.458Z,99921.88
2022-08-19T01:01:22.139Z,99946.09
2022-08-19T01:06:24.530Z,99959.75
2022-08-19T01:11:27.881Z,99971.13
2022-08-19T01:16:31.049Z,99972.44
2022-08-19T01:21:48.390Z,99957.31
2022-08-19T01:26:50.039Z,99955.41
2022-08-19T01:31:53.535Z,99959.25
2022-08-19T01:36:55.136Z,99957.09
2022-08-19T01:41:56.803Z,99962.00
2022-08-19T01:46:58.430Z,99955.88
2022-08-19T01:52:01.908Z,99956.59
2022-08-19T01:57:09.408Z,99952.22
2022-08-19T02:02:11.421Z,99952.22
2022-08-19T02:07:12.998Z,99952.34
2022-08-19T02:12:15.546Z,99953.16
2022-08-19T02:17:16.969Z,99967.78
2022-08-19T02:22:18.410Z,99956.47
2022-08-19T02:27:20.263Z,99957.16
2022-08-19T02:32:21.806Z,99962.84
2022-08-19T02:37:41.782Z,99964.00
2022-08-19T02:42:43.678Z,99955.66
2022-08-19T02:47:45.338Z,99953.50
2022-08-19T02:52:46.838Z,99947.94
2022-08-19T02:57:48.972Z,99951.09
2022-08-19T03:02:50.746Z,99950.41
2022-08-19T03:07:52.268Z,99956.59
2022-08-19T03:12:53.888Z,99970.31
2022-08-19T03:17:55.579Z,99972.91
2022-08-19T03:22:58.845Z,99971.56
2022-08-19T03:28:00.279Z,99970.25
2022-08-19T03:33:02.846Z,99975.69
2022-08-19T03:38:07.583Z,99972.22
2022-08-19T03:43:09.373Z,99978.28
2022-08-19T03:48:10.805Z,99971.44
2022-08-19T03:53:12.281Z,99980.44
2022-08-19T03:58:13.736Z,99983.84
2022-08-19T04:03:15.643Z,99973.59
2022-08-19T04:08:21.149Z,99972.91
2022-08-19T04:13:23.039Z,99981.63
2022-08-19T04:18:24.973Z,99987.16
2022-08-19T04:23:26.632Z,99995.19
2022-08-19T04:28:31.050Z,99991.91
2022-08-19T04:33:33.096Z,99979.78
2022-08-19T04:38:34.862Z,99983.06
2022-08-19T04:43:39.066Z,99991.41
2022-08-19T04:48:44.916Z,99999.41
2022-08-19T04:53:51.245Z,99998.06
2022-08-19T04:58:53.527Z,100009.69
2022-08-19T05:03:55.807Z,100009.94
2022-08-19T05:08:57.265Z,100011.84
2022-08-19T05:13:58.836Z,100010.44
2022-08-19T05:19:19.202Z,100021.63
2022-08-19T05:24:21.948Z,100033.97
2022-08-19T05:29:25.840Z,100034.28
2022-08-19T05:34:28.351Z,100048.94
2022-08-19T05:39:33.491Z,100049.25
2022-08-19T05:44:39.207Z,100066.28
2022-08-19T05:49:40.698Z,100076.41
2022-08-19T05:54:43.607Z,100077.47
2022-08-19T05:59:47.212Z,100085.69
2022-08-19T06:04:48.761Z,100082.72
2022-08-19T06:09:58.942Z,100086.16
2022-08-19T06:15:06.539Z,100075.34
2022-08-19T06:20:11.247Z,100078.16
2022-08-19T06:25:13.972Z,100073.34
2022-08-19T06:30:15.886Z,100082.72
2022-08-19T06:35:17.461Z,100086.97
2022-08-19T06:40:19.042Z,100094.09
2022-08-19T06:45:21.473Z,100100.84
2022-08-19T06:50:26.773Z,100095.78
2022-08-19T06:55:30.399Z,100093.56
2022-08-19T07:00:35.126Z,100098.38
2022-08-19T07:05:45.773Z,100099.31
2022-08-19T07:10:47.835Z,100091.91
2022-08-19T07:15:51.202Z,100091.63
2022-08-19T07:21:09.504Z,100093.31
2022-08-19T07:26:20.123Z,100096.47
2022-08-19T07:31:31.175Z,100093.47
2022-08-19T07:36:35.731Z,100087.59
2022-08-19T07:41:38.037Z,100101.84
2022-08-19T07:46:45.891Z,100096.47
2022-08-19T07:51:53.699Z,100098.59
2022-08-19T07:56:55.358Z,100096.06
2022-08-19T08:02:00.568Z,100096.69
2022-08-19T08:07:20.846Z,100105.88
2022-08-19T08:12:34.167Z,100092.63
2022-08-19T08:17:49.781Z,100110.78
2022-08-19T08:23:11.765Z,100092.94
2022-08-19T08:28:17.641Z,100095.91
2022-08-19T08:33:33.259Z,100096.31
2022-08-19T08:38:41.314Z,100097.41
2022-08-19T08:43:48.500Z,100099.53
2022-08-19T08:49:08.430Z,100093.44
2022-08-19T08:54:14.402Z,100094.16
2022-08-19T08:59:36.369Z,100096.81
2022-08-19T09:04:38.878Z,100081.34
2022-08-19T09:09:44.535Z,100084.22
2022-08-19T09:15:10.021Z,100080.16
2022-08-19T09:20:11.491Z,100083.00
2022-08-19T09:25:17.257Z,100085.44
2022-08-19T09:30:29.093Z,100077.56
2022-08-19T09:35:50.184Z,100070.38
2022-08-19T09:40:54.874Z,100079.44
2022-08-19T09:45:56.911Z,100071.75
2022-08-19T09:51:16.467Z,100068.22
2022-08-19T09:56:20.048Z,100070.50
2022-08-19T10:01:24.655Z,100074.75
2022-08-19T10:06:45.723Z,100066.50
2022-08-19T10:11:54.942Z,100074.88
2022-08-19T10:16:57.498Z,100070.91
2022-08-19T10:22:04.548Z,100074.94
2022-08-19T10:27:06.753Z,100077.91
2022-08-19T10:32:10.976Z,100065.47
2022-08-19T10:37:14.340Z,100062.78
2022-08-19T10:42:17.133Z,100049.06
2022-08-19T10:47:24.981Z,100053.72
2022-08-19T10:52:38.794Z,100042.56
2022-08-19T10:58:01.270Z,100049.28
2022-08-19T11:03:02.825Z,100032.19
2022-08-19T11:08:04.277Z,100029.34
2022-08-19T11:13:25.670Z,100023.88
2022-08-19T11:18:27.442Z,100014.31
2022-08-19T11:23:28.879Z,100014.66
2022-08-19T11:28:30.685Z,100007.69
2022-08-19T11:33:32.485Z,100003.78
2022-08-19T11:38:36.398Z,100000.50
2022-08-19T11:43:38.334Z,99999.59
2022-08-19T11:48:40.009Z,100006.06
2022-08-19T11:53:41.841Z,100007.97
2022-08-19T11:58:43.333Z,100004.72
2022-08-19T12:03:47.060Z,99998.72
2022-08-19T12:08:48.830Z,100005.34
2022-08-19T12:13:50.985Z,100014.41
2022-08-19T12:18:52.537Z,100020.53
2022-08-19T12:23:55.920Z,100014.56
2022-08-19T12:28:59.894Z,100023.91
2022-08-19T12:34:02.454Z,100017.63
2022-08-19T12:39:04.491Z,100019.47
2022-08-19T12:44:06.685Z,100011.31
2022-08-19T12:49:20.681Z,100013.53
2022-08-19T12:54:31.645Z,100023.56
2022-08-19T12:59:33.189Z,100011.91
2022-08-19T13:04:41.579Z,100002.75
2022-08-19T13:09:43.615Z,99986.41
2022-08-19T13:14:50.862Z,99989.44
2022-08-19T13:19:52.643Z,99978.44
2022-08-19T13:24:54.116Z,99967.38
2022-08-19T13:30:14.335Z,99975.28
2022-08-19T13:35:17.175Z,99977.53
2022-08-19T13:40:23.765Z,99973.47
2022-08-19T13:45:27.850Z,99967.81
2022-08-19T13:50:32.183Z,99960.84
2022-08-19T13:55:33.793Z,99962.16
2022-08-19T14:00:39.279Z,99961.78
2022-08-19T14:05:40.895Z,99957.91
2022-08-19T14:10:44.635Z,99962.00
2022-08-19T14:15:48.256Z,99960.34
2022-08-19T14:20:50.084Z,99967.94
2022-08-19T14:25:51.542Z,99957.19
2022-08-19T14:30:55.306Z,99959.03
2022-08-19T14:35:59.975Z,99955.44
2022-08-19T14:41:18.003Z,99949.28
2022-08-19T14:46:22.272Z,99948.22
2022-08-19T14:51:25.475Z,99938.09
2022-08-19T14:56:29.651Z,99941.28
2022-08-19T15:01:31.283Z,99951.00
2022-08-19T15:06:32.800Z,99950.72
2022-08-19T15:11:35.060Z,99952.06
2022-08-19T15:16:36.634Z,99955.09
2022-08-19T15:21:38.227Z,99960.16
2022-08-19T15:26:39.658Z,99954.97
2022-08-19T15:31:41.176Z,99962.72
2022-08-19T15:36:42.608Z,99963.38
2022-08-19T15:41:45.248Z,99967.69
2022-08-19T15:46:48.049Z,99968.50
2022-08-19T15:51:51.776Z,99956.34
2022-08-19T15:57:11.953Z,99959.22
2022-08-19T16:02:32.524Z,99960.16
2022-08-19T16:07:34.015Z,99952.47
2022-08-19T16:12:35.860Z,99957.81
2022-08-19T16:17:37.463Z,99958.81
2022-08-19T16:22:40.545Z,99958.63
2022-08-19T16:27:43.324Z,99959.56
2022-08-19T16:33:03.616Z,99957.97
2022-08-19T16:38:06.819Z,99951.91
2022-08-19T16:43:09.821Z,99949.25
2022-08-19T16:48:11.506Z,99955.22
2022-08-19T16:53:14.213Z,99954.97
2022-08-19T16:58:15.644Z,99959.06
2022-08-19T17:03:19.628Z,99957.91
2022-08-19T17:08:32.859Z,99965.41
2022-08-19T17:13:34.671Z,99970.03
2022-08-19T17:18:36.145Z,99963.53
2022-08-19T17:23:43.341Z,99976.50
2022-08-19T17:28:51.329Z,99983.56
2022-08-19T17:33:55.127Z,99983.66
2022-08-19T17:38:58.697Z,99982.06
2022-08-19T17:44:00.727Z,99989.56
2022-08-19T17:49:02.795Z,99991.56
2022-08-19T17:54:06.400Z,99999.44
2022-08-19T17:59:11.815Z,100002.09
2022-08-19T18:04:17.210Z,100001.09
2022-08-19T18:09:18.754Z,100012.88
2022-08-19T18:14:32.907Z,100016.34
2022-08-19T18:19:41.055Z,100018.78
2022-08-19T18:24:45.876Z,100026.94
2022-08-19T18:29:47.579Z,100030.03
2022-08-19T18:34:49.144Z,100030.50
2022-08-19T18:40:09.463Z,100042.25
2022-08-19T18:45:30.063Z,100047.78
2022-08-19T18:50:32.031Z,100056.06
2022-08-19T18:55:33.549Z,100061.56
2022-08-19T19:00:37.454Z,100072.31
2022-08-19T19:05:40.002Z,100084.47
2022-08-19T19:10:42.236Z,100095.56
2022-08-19T19:15:43.925Z,100099.09
2022-08-19T19:20:45.400Z,100106.75
2022-08-19T19:25:50.564Z,100109.09
2022-08-19T19:30:54.453Z,100110.84
2022-08-19T19:35:56.272Z,100121.72
2022-08-19T19:40:57.770Z,100126.91
2022-08-19T19:45:59.337Z,100151.81
2022-08-19T19:51:01.374Z,100149.13
2022-08-19T19:56:04.276Z,100157.69
2022-08-19T20:01:08.033Z,100159.94
2022-08-19T20:06:13.405Z,100163.28
2022-08-19T20:11:44.685Z,100166.88
2022-08-19T20:16:47.718Z,100183.28
2022-08-19T20:21:51.451Z,100194.06
2022-08-19T20:26:53.732Z,100192.47
2022-08-19T20:31:57.515Z,100205.03
2022-08-19T20:37:00.883Z,100215.47
2022-08-19T20:42:03.621Z,100216.03
2022-08-19T20:47:05.251Z,100217.97
2022-08-19T20:52:06.709Z,100219.19
2022-08-19T20:57:08.713Z,100228.94
2022-08-19T21:02:11.091Z,100227.28
2022-08-19T21:07:12.585Z,100231.03
2022-08-19T21:12:14.330Z,100238.03
2022-08-19T21:17:15.864Z,100241.75
2022-08-19T21:22:17.307Z,100244.09
2022-08-19T21:27:18.952Z,100252.88
2022-08-19T21:32:20.939Z,100256.25
2022-08-19T21:37:25.745Z,100252.81
2022-08-19T21:42:27.622Z,100250.63
2022-08-19T21:47:29.051Z,100260.31
2022-08-19T21:52:30.616Z,100266.31
2022-08-19T21:57:32.305Z,100271.38
2022-08-19T22:02:33.767Z,100270.22
2022-08-19T22:07:36.785Z,100275.25
2022-08-19T22:12:39.411Z,100278.63
2022-08-19T22:17:53.623Z,100282.28
2022-08-19T22:22:58.787Z,100276.91
2022-08-19T22:28:01.853Z,100282.19
2022-08-19T22:33:06.211Z,100281.84
2022-08-19T22:38:10.145Z,100286.16
2022-08-19T22:43:16.030Z,100282.97
2022-08-19T22:48:20.008Z,100286.41
2022-08-19T22:53:21.459Z,100283.75
2022-08-19T22:58:27.997Z,100275.72
2022-08-19T23:03:29.901Z,100273.78
2022-08-19T23:08:31.633Z,100284.91
2022-08-19T23:13:33.663Z,100299.31
2022-08-19T23:18:35.229Z,100293.06
2022-08-19T23:23:37.756Z,100282.69
2022-08-19T23:28:59.438Z,100271.25
2022-08-19T23:34:00.939Z,100275.38
2022-08-19T23:39:02.451Z,100275.00
2022-08-19T23:44:04.177Z,100272.09
2022-08-19T23:49:06.396Z,100267.28
2022-08-19T23:54:07.876Z,100265.47
2022-08-19T23:59:09.431Z,100270.66
